sensor_id;sensor_type;location;lat;lon;timestamp;temperature;humidity
60313;DHT22;46158;52.850;6.970;2022-11-15T00:01:48;15.10;83.60
60313;DHT22;46158;52.850;6.970;2022-11-15T00:04:13;15.10;83.60
60313;DHT22;46158;52.850;6.970;2022-11-15T00:06:39;15.10;83.60
60313;DHT22;46158;52.850;6.970;2022-11-15T00:09:05;15.10;83.50
60313;DHT22;46158;52.850;6.970;2022-11-15T00:11:31;15.00;83.50
60313;DHT22;46158;52.850;6.970;2022-11-15T00:13:57;15.10;83.50
60313;DHT22;46158;52.850;6.970;2022-11-15T00:16:24;15.00;83.40
60313;DHT22;46158;52.850;6.970;2022-11-15T00:18:50;15.00;83.40
60313;DHT22;46158;52.850;6.970;2022-11-15T00:21:16;15.00;83.30
60313;DHT22;46158;52.850;6.970;2022-11-15T00:23:42;15.00;83.30
60313;DHT22;46158;52.850;6.970;2022-11-15T00:26:11;15.00;83.30
60313;DHT22;46158;52.850;6.970;2022-11-15T00:28:37;15.00;83.20
60313;DHT22;46158;52.850;6.970;2022-11-15T00:31:05;15.00;83.30
60313;DHT22;46158;52.850;6.970;2022-11-15T00:33:32;15.00;83.30
60313;DHT22;46158;52.850;6.970;2022-11-15T00:36:08;15.00;83.20
60313;DHT22;46158;52.850;6.970;2022-11-15T00:38:39;14.90;83.00
60313;DHT22;46158;52.850;6.970;2022-11-15T00:41:06;14.90;83.00
60313;DHT22;46158;52.850;6.970;2022-11-15T00:43:32;14.90;83.10
60313;DHT22;46158;52.850;6.970;2022-11-15T00:45:58;14.90;83.00
60313;DHT22;46158;52.850;6.970;2022-11-15T00:48:24;14.90;83.00
60313;DHT22;46158;52.850;6.970;2022-11-15T00:50:50;14.90;83.00
60313;DHT22;46158;52.850;6.970;2022-11-15T00:53:16;14.90;82.90
60313;DHT22;46158;52.850;6.970;2022-11-15T00:55:42;14.90;83.00
60313;DHT22;46158;52.850;6.970;2022-11-15T00:58:08;14.90;82.90
60313;DHT22;46158;52.850;6.970;2022-11-15T01:00:34;14.90;82.90
60313;DHT22;46158;52.850;6.970;2022-11-15T01:03:00;14.90;82.80
60313;DHT22;46158;52.850;6.970;2022-11-15T01:05:27;14.90;82.80
60313;DHT22;46158;52.850;6.970;2022-11-15T01:07:54;14.90;82.80
60313;DHT22;46158;52.850;6.970;2022-11-15T01:10:20;14.80;82.80
60313;DHT22;46158;52.850;6.970;2022-11-15T01:12:46;14.80;82.70
60313;DHT22;46158;52.850;6.970;2022-11-15T01:15:11;14.80;82.70
60313;DHT22;46158;52.850;6.970;2022-11-15T01:17:37;14.80;82.70
60313;DHT22;46158;52.850;6.970;2022-11-15T01:20:03;14.80;82.70
60313;DHT22;46158;52.850;6.970;2022-11-15T01:22:29;14.80;82.70
60313;DHT22;46158;52.850;6.970;2022-11-15T01:24:54;14.80;82.60
60313;DHT22;46158;52.850;6.970;2022-11-15T01:27:20;14.80;82.60
60313;DHT22;46158;52.850;6.970;2022-11-15T01:29:46;14.80;82.60
60313;DHT22;46158;52.850;6.970;2022-11-15T01:32:12;14.80;83.20
60313;DHT22;46158;52.850;6.970;2022-11-15T01:34:37;14.80;82.50
60313;DHT22;46158;52.850;6.970;2022-11-15T01:37:03;14.80;82.50
60313;DHT22;46158;52.850;6.970;2022-11-15T01:39:28;14.70;82.50
60313;DHT22;46158;52.850;6.970;2022-11-15T01:41:54;14.80;82.50
60313;DHT22;46158;52.850;6.970;2022-11-15T01:44:43;14.70;82.40
60313;DHT22;46158;52.850;6.970;2022-11-15T01:47:16;14.70;82.40
60313;DHT22;46158;52.850;6.970;2022-11-15T01:49:59;14.70;82.40
60313;DHT22;46158;52.850;6.970;2022-11-15T01:52:28;14.70;82.30
60313;DHT22;46158;52.850;6.970;2022-11-15T01:55:23;14.70;82.30
60313;DHT22;46158;52.850;6.970;2022-11-15T01:57:53;14.70;82.30
60313;DHT22;46158;52.850;6.970;2022-11-15T02:00:20;14.70;82.40
60313;DHT22;46158;52.850;6.970;2022-11-15T02:02:47;14.60;82.30
60313;DHT22;46158;52.850;6.970;2022-11-15T02:05:13;14.60;82.20
60313;DHT22;46158;52.850;6.970;2022-11-15T02:07:39;14.60;82.20
60313;DHT22;46158;52.850;6.970;2022-11-15T02:10:11;14.60;82.20
60313;DHT22;46158;52.850;6.970;2022-11-15T02:12:38;14.60;82.10
60313;DHT22;46158;52.850;6.970;2022-11-15T02:15:05;14.60;82.10
60313;DHT22;46158;52.850;6.970;2022-11-15T02:28:50;14.60;82.10
60313;DHT22;46158;52.850;6.970;2022-11-15T02:36:36;14.60;82.00
60313;DHT22;46158;52.850;6.970;2022-11-15T02:41:53;14.50;81.90
60313;DHT22;46158;52.850;6.970;2022-11-15T02:44:26;14.60;82.00
60313;DHT22;46158;52.850;6.970;2022-11-15T02:46:58;14.50;82.00
60313;DHT22;46158;52.850;6.970;2022-11-15T02:49:55;14.50;81.90
60313;DHT22;46158;52.850;6.970;2022-11-15T02:52:24;14.50;81.90
60313;DHT22;46158;52.850;6.970;2022-11-15T02:54:57;14.50;82.60
60313;DHT22;46158;52.850;6.970;2022-11-15T02:57:52;14.50;81.90
60313;DHT22;46158;52.850;6.970;2022-11-15T03:00:21;14.50;81.80
60313;DHT22;46158;52.850;6.970;2022-11-15T03:11:17;14.40;81.90
60313;DHT22;46158;52.850;6.970;2022-11-15T03:14:02;14.40;81.80
60313;DHT22;46158;52.850;6.970;2022-11-15T03:16:58;14.50;81.80
60313;DHT22;46158;52.850;6.970;2022-11-15T03:19:32;14.40;81.70
60313;DHT22;46158;52.850;6.970;2022-11-15T03:22:01;14.40;81.80
60313;DHT22;46158;52.850;6.970;2022-11-15T03:24:29;14.40;81.80
60313;DHT22;46158;52.850;6.970;2022-11-15T03:26:56;14.40;81.70
60313;DHT22;46158;52.850;6.970;2022-11-15T03:29:27;14.40;81.70
60313;DHT22;46158;52.850;6.970;2022-11-15T03:31:58;14.40;81.70
60313;DHT22;46158;52.850;6.970;2022-11-15T03:34:44;14.40;81.70
60313;DHT22;46158;52.850;6.970;2022-11-15T03:37:13;14.40;81.60
60313;DHT22;46158;52.850;6.970;2022-11-15T03:39:42;14.40;81.70
60313;DHT22;46158;52.850;6.970;2022-11-15T03:42:47;14.40;81.90
60313;DHT22;46158;52.850;6.970;2022-11-15T03:45:19;14.40;81.60
60313;DHT22;46158;52.850;6.970;2022-11-15T03:47:46;14.40;81.70
60313;DHT22;46158;52.850;6.970;2022-11-15T03:50:17;14.30;81.60
60313;DHT22;46158;52.850;6.970;2022-11-15T03:52:46;14.30;81.60
60313;DHT22;46158;52.850;6.970;2022-11-15T03:55:17;14.30;81.60
60313;DHT22;46158;52.850;6.970;2022-11-15T03:57:44;14.30;81.50
60313;DHT22;46158;52.850;6.970;2022-11-15T04:00:11;14.30;81.60
60313;DHT22;46158;52.850;6.970;2022-11-15T04:02:36;14.30;81.50
60313;DHT22;46158;52.850;6.970;2022-11-15T04:05:03;14.30;81.60
60313;DHT22;46158;52.850;6.970;2022-11-15T04:07:29;14.30;81.50
60313;DHT22;46158;52.850;6.970;2022-11-15T04:09:55;14.30;81.50
60313;DHT22;46158;52.850;6.970;2022-11-15T04:12:27;14.30;81.50
60313;DHT22;46158;52.850;6.970;2022-11-15T04:15:09;14.30;81.50
60313;DHT22;46158;52.850;6.970;2022-11-15T04:17:43;14.30;81.50
60313;DHT22;46158;52.850;6.970;2022-11-15T04:20:24;14.30;82.10
60313;DHT22;46158;52.850;6.970;2022-11-15T04:23:17;14.30;81.40
60313;DHT22;46158;52.850;6.970;2022-11-15T04:26:04;14.30;81.50
60313;DHT22;46158;52.850;6.970;2022-11-15T04:28:30;14.20;81.50
60313;DHT22;46158;52.850;6.970;2022-11-15T04:30:56;14.20;81.40
60313;DHT22;46158;52.850;6.970;2022-11-15T04:33:22;14.20;81.40
60313;DHT22;46158;52.850;6.970;2022-11-15T04:35:48;14.30;81.50
60313;DHT22;46158;52.850;6.970;2022-11-15T04:38:35;14.20;81.40
60313;DHT22;46158;52.850;6.970;2022-11-15T04:41:01;14.20;81.40
60313;DHT22;46158;52.850;6.970;2022-11-15T04:43:27;14.20;81.40
60313;DHT22;46158;52.850;6.970;2022-11-15T04:45:53;14.20;81.40
60313;DHT22;46158;52.850;6.970;2022-11-15T04:48:19;14.20;81.40
60313;DHT22;46158;52.850;6.970;2022-11-15T04:50:47;14.20;81.40
60313;DHT22;46158;52.850;6.970;2022-11-15T04:53:12;14.20;81.30
60313;DHT22;46158;52.850;6.970;2022-11-15T04:55:38;14.20;81.30
60313;DHT22;46158;52.850;6.970;2022-11-15T04:58:03;14.20;81.30
60313;DHT22;46158;52.850;6.970;2022-11-15T05:00:29;14.20;81.30
60313;DHT22;46158;52.850;6.970;2022-11-15T05:02:56;14.20;81.30
60313;DHT22;46158;52.850;6.970;2022-11-15T05:05:40;14.20;81.30
60313;DHT22;46158;52.850;6.970;2022-11-15T05:08:06;14.20;81.40
60313;DHT22;46158;52.850;6.970;2022-11-15T05:10:32;14.20;81.30
60313;DHT22;46158;52.850;6.970;2022-11-15T05:12:58;14.20;81.30
60313;DHT22;46158;52.850;6.970;2022-11-15T05:15:23;14.20;81.30
60313;DHT22;46158;52.850;6.970;2022-11-15T05:17:49;14.20;81.30
60313;DHT22;46158;52.850;6.970;2022-11-15T05:20:15;14.20;81.30
60313;DHT22;46158;52.850;6.970;2022-11-15T05:22:40;14.10;81.20
60313;DHT22;46158;52.850;6.970;2022-11-15T05:25:07;14.10;81.20
60313;DHT22;46158;52.850;6.970;2022-11-15T05:27:34;14.10;81.20
60313;DHT22;46158;52.850;6.970;2022-11-15T05:30:00;14.20;81.20
60313;DHT22;46158;52.850;6.970;2022-11-15T05:32:25;14.10;81.20
60313;DHT22;46158;52.850;6.970;2022-11-15T05:34:51;14.10;81.20
60313;DHT22;46158;52.850;6.970;2022-11-15T05:37:17;14.10;81.20
60313;DHT22;46158;52.850;6.970;2022-11-15T05:39:43;14.10;81.10
60313;DHT22;46158;52.850;6.970;2022-11-15T05:42:11;14.10;81.10
60313;DHT22;46158;52.850;6.970;2022-11-15T05:44:40;14.10;81.20
60313;DHT22;46158;52.850;6.970;2022-11-15T05:47:09;14.10;81.30
60313;DHT22;46158;52.850;6.970;2022-11-15T05:49:38;14.20;81.40
60313;DHT22;46158;52.850;6.970;2022-11-15T05:52:07;14.10;81.60
60313;DHT22;46158;52.850;6.970;2022-11-15T05:54:35;14.10;81.60
60313;DHT22;46158;52.850;6.970;2022-11-15T05:57:02;14.10;81.80
60313;DHT22;46158;52.850;6.970;2022-11-15T05:59:31;14.20;82.00
60313;DHT22;46158;52.850;6.970;2022-11-15T06:01:58;14.20;82.10
60313;DHT22;46158;52.850;6.970;2022-11-15T06:04:24;14.10;82.20
60313;DHT22;46158;52.850;6.970;2022-11-15T06:06:49;14.20;82.30
60313;DHT22;46158;52.850;6.970;2022-11-15T06:09:15;14.20;82.50
60313;DHT22;46158;52.850;6.970;2022-11-15T06:11:41;14.20;82.50
60313;DHT22;46158;52.850;6.970;2022-11-15T06:14:06;14.20;82.70
60313;DHT22;46158;52.850;6.970;2022-11-15T06:16:32;14.20;83.00
60313;DHT22;46158;52.850;6.970;2022-11-15T06:18:58;14.20;83.10
60313;DHT22;46158;52.850;6.970;2022-11-15T06:21:24;14.30;83.20
60313;DHT22;46158;52.850;6.970;2022-11-15T06:23:49;14.30;83.30
60313;DHT22;46158;52.850;6.970;2022-11-15T06:26:15;14.30;83.40
60313;DHT22;46158;52.850;6.970;2022-11-15T06:28:40;14.30;83.40
60313;DHT22;46158;52.850;6.970;2022-11-15T06:31:08;14.30;83.50
60313;DHT22;46158;52.850;6.970;2022-11-15T06:33:34;14.30;83.70
60313;DHT22;46158;52.850;6.970;2022-11-15T06:36:04;14.30;83.70
60313;DHT22;46158;52.850;6.970;2022-11-15T06:38:31;14.30;83.60
60313;DHT22;46158;52.850;6.970;2022-11-15T06:41:04;14.30;83.60
60313;DHT22;46158;52.850;6.970;2022-11-15T06:43:30;14.40;83.70
60313;DHT22;46158;52.850;6.970;2022-11-15T06:45:57;14.40;83.70
60313;DHT22;46158;52.850;6.970;2022-11-15T06:48:23;14.40;83.60
60313;DHT22;46158;52.850;6.970;2022-11-15T06:50:53;14.40;83.60
60313;DHT22;46158;52.850;6.970;2022-11-15T06:53:19;14.40;83.60
60313;DHT22;46158;52.850;6.970;2022-11-15T06:55:44;14.40;83.60
60313;DHT22;46158;52.850;6.970;2022-11-15T06:58:10;14.40;83.60
60313;DHT22;46158;52.850;6.970;2022-11-15T07:00:36;14.40;83.60
60313;DHT22;46158;52.850;6.970;2022-11-15T07:03:02;14.40;83.50
60313;DHT22;46158;52.850;6.970;2022-11-15T07:05:28;14.40;83.50
60313;DHT22;46158;52.850;6.970;2022-11-15T07:07:55;14.40;83.40
60313;DHT22;46158;52.850;6.970;2022-11-15T07:10:21;14.40;83.40
60313;DHT22;46158;52.850;6.970;2022-11-15T07:12:48;14.40;83.40
60313;DHT22;46158;52.850;6.970;2022-11-15T07:15:15;14.40;83.40
60313;DHT22;46158;52.850;6.970;2022-11-15T07:17:41;14.40;83.40
60313;DHT22;46158;52.850;6.970;2022-11-15T07:20:07;14.40;83.40
60313;DHT22;46158;52.850;6.970;2022-11-15T07:22:33;14.40;83.40
60313;DHT22;46158;52.850;6.970;2022-11-15T07:24:58;14.40;83.40
60313;DHT22;46158;52.850;6.970;2022-11-15T07:27:24;14.50;83.50
60313;DHT22;46158;52.850;6.970;2022-11-15T07:29:50;14.40;83.50
60313;DHT22;46158;52.850;6.970;2022-11-15T07:32:15;14.40;83.50
60313;DHT22;46158;52.850;6.970;2022-11-15T07:34:41;14.40;83.50
60313;DHT22;46158;52.850;6.970;2022-11-15T07:37:06;14.50;83.60
60313;DHT22;46158;52.850;6.970;2022-11-15T07:39:32;14.50;83.60
60313;DHT22;46158;52.850;6.970;2022-11-15T07:41:59;14.40;83.60
60313;DHT22;46158;52.850;6.970;2022-11-15T07:44:43;14.50;83.60
60313;DHT22;46158;52.850;6.970;2022-11-15T07:47:09;14.50;83.60
60313;DHT22;46158;52.850;6.970;2022-11-15T07:49:35;14.50;83.60
60313;DHT22;46158;52.850;6.970;2022-11-15T07:52:00;14.50;83.60
60313;DHT22;46158;52.850;6.970;2022-11-15T07:54:26;14.50;83.70
60313;DHT22;46158;52.850;6.970;2022-11-15T07:56:51;14.50;83.70
60313;DHT22;46158;52.850;6.970;2022-11-15T07:59:17;14.50;83.70
60313;DHT22;46158;52.850;6.970;2022-11-15T08:01:43;14.50;83.70
60313;DHT22;46158;52.850;6.970;2022-11-15T08:04:10;14.50;83.70
60313;DHT22;46158;52.850;6.970;2022-11-15T08:06:36;14.50;83.60
60313;DHT22;46158;52.850;6.970;2022-11-15T08:09:02;14.50;83.60
60313;DHT22;46158;52.850;6.970;2022-11-15T08:11:28;14.50;83.60
60313;DHT22;46158;52.850;6.970;2022-11-15T08:13:54;14.50;83.60
60313;DHT22;46158;52.850;6.970;2022-11-15T08:16:19;14.50;83.60
60313;DHT22;46158;52.850;6.970;2022-11-15T08:18:45;14.50;83.70
60313;DHT22;46158;52.850;6.970;2022-11-15T08:21:13;14.50;83.60
60313;DHT22;46158;52.850;6.970;2022-11-15T08:23:40;14.50;83.70
60313;DHT22;46158;52.850;6.970;2022-11-15T08:26:05;14.50;83.60
60313;DHT22;46158;52.850;6.970;2022-11-15T08:28:32;14.50;83.60
60313;DHT22;46158;52.850;6.970;2022-11-15T08:30:57;14.60;83.70
60313;DHT22;46158;52.850;6.970;2022-11-15T08:33:23;14.60;83.80
60313;DHT22;46158;52.850;6.970;2022-11-15T08:35:49;14.50;83.70
60313;DHT22;46158;52.850;6.970;2022-11-15T08:38:15;14.50;83.70
60313;DHT22;46158;52.850;6.970;2022-11-15T08:40:41;14.60;83.80
60313;DHT22;46158;52.850;6.970;2022-11-15T08:43:06;14.60;83.90
60313;DHT22;46158;52.850;6.970;2022-11-15T08:45:34;14.60;83.90
60313;DHT22;46158;52.850;6.970;2022-11-15T08:48:02;14.60;83.90
60313;DHT22;46158;52.850;6.970;2022-11-15T08:50:28;14.60;84.00
60313;DHT22;46158;52.850;6.970;2022-11-15T08:52:53;14.60;84.10
60313;DHT22;46158;52.850;6.970;2022-11-15T08:55:19;14.60;84.20
60313;DHT22;46158;52.850;6.970;2022-11-15T08:57:45;14.60;84.30
60313;DHT22;46158;52.850;6.970;2022-11-15T09:00:11;14.60;84.40
60313;DHT22;46158;52.850;6.970;2022-11-15T09:02:41;14.60;84.60
60313;DHT22;46158;52.850;6.970;2022-11-15T09:05:08;14.60;84.70
60313;DHT22;46158;52.850;6.970;2022-11-15T09:07:33;14.60;84.80
60313;DHT22;46158;52.850;6.970;2022-11-15T09:09:59;14.60;85.10
60313;DHT22;46158;52.850;6.970;2022-11-15T09:12:25;14.70;85.30
60313;DHT22;46158;52.850;6.970;2022-11-15T09:14:51;14.70;85.40
60313;DHT22;46158;52.850;6.970;2022-11-15T09:17:16;14.70;85.50
60313;DHT22;46158;52.850;6.970;2022-11-15T09:19:42;14.70;85.60
60313;DHT22;46158;52.850;6.970;2022-11-15T09:22:08;14.80;85.80
60313;DHT22;46158;52.850;6.970;2022-11-15T09:24:34;14.80;85.80
60313;DHT22;46158;52.850;6.970;2022-11-15T09:27:00;14.80;85.90
60313;DHT22;46158;52.850;6.970;2022-11-15T09:29:26;14.80;86.00
60313;DHT22;46158;52.850;6.970;2022-11-15T09:31:52;14.80;86.10
60313;DHT22;46158;52.850;6.970;2022-11-15T09:34:18;14.80;86.20
60313;DHT22;46158;52.850;6.970;2022-11-15T09:36:43;14.80;86.30
60313;DHT22;46158;52.850;6.970;2022-11-15T09:39:09;14.80;86.30
60313;DHT22;46158;52.850;6.970;2022-11-15T09:44:36;14.90;86.40
60313;DHT22;46158;52.850;6.970;2022-11-15T09:49:45;14.90;86.40
60313;DHT22;46158;52.850;6.970;2022-11-15T09:52:11;14.90;86.40
60313;DHT22;46158;52.850;6.970;2022-11-15T09:54:43;14.90;86.40
60313;DHT22;46158;52.850;6.970;2022-11-15T09:57:16;15.00;86.40
60313;DHT22;46158;52.850;6.970;2022-11-15T10:00:00;15.00;86.50
60313;DHT22;46158;52.850;6.970;2022-11-15T10:05:14;15.00;86.50
60313;DHT22;46158;52.850;6.970;2022-11-15T10:10:27;15.00;86.40
60313;DHT22;46158;52.850;6.970;2022-11-15T10:12:55;15.00;86.50
60313;DHT22;46158;52.850;6.970;2022-11-15T10:15:21;15.00;86.60
60313;DHT22;46158;52.850;6.970;2022-11-15T10:18:34;15.00;86.60
60313;DHT22;46158;52.850;6.970;2022-11-15T10:21:09;15.10;86.70
60313;DHT22;46158;52.850;6.970;2022-11-15T10:23:39;15.10;86.70
60313;DHT22;46158;52.850;6.970;2022-11-15T10:26:09;15.00;86.70
60313;DHT22;46158;52.850;6.970;2022-11-15T10:28:36;15.10;86.70
60313;DHT22;46158;52.850;6.970;2022-11-15T10:31:02;15.10;86.80
60313;DHT22;46158;52.850;6.970;2022-11-15T10:33:36;15.10;86.70
60313;DHT22;46158;52.850;6.970;2022-11-15T10:38:55;15.20;86.60
60313;DHT22;46158;52.850;6.970;2022-11-15T10:46:34;15.20;86.60
60313;DHT22;46158;52.850;6.970;2022-11-15T10:49:23;15.20;86.70
60313;DHT22;46158;52.850;6.970;2022-11-15T10:51:59;15.20;86.60
60313;DHT22;46158;52.850;6.970;2022-11-15T10:56:54;15.20;86.80
60313;DHT22;46158;52.850;6.970;2022-11-15T10:59:31;15.20;86.90
60313;DHT22;46158;52.850;6.970;2022-11-15T11:01:59;15.30;86.90
60313;DHT22;46158;52.850;6.970;2022-11-15T11:04:25;15.30;86.90
60313;DHT22;46158;52.850;6.970;2022-11-15T11:06:58;15.30;86.90
60313;DHT22;46158;52.850;6.970;2022-11-15T11:09:38;15.30;86.90
60313;DHT22;46158;52.850;6.970;2022-11-15T11:12:10;15.30;86.90
60313;DHT22;46158;52.850;6.970;2022-11-15T11:14:38;15.30;87.00
60313;DHT22;46158;52.850;6.970;2022-11-15T11:20:22;15.30;86.90
60313;DHT22;46158;52.850;6.970;2022-11-15T11:23:05;15.30;87.00
60313;DHT22;46158;52.850;6.970;2022-11-15T11:28:21;15.40;87.10
60313;DHT22;46158;52.850;6.970;2022-11-15T11:33:34;15.40;87.00
60313;DHT22;46158;52.850;6.970;2022-11-15T11:36:36;15.40;87.00
60313;DHT22;46158;52.850;6.970;2022-11-15T11:39:38;15.40;86.90
60313;DHT22;46158;52.850;6.970;2022-11-15T11:42:23;15.40;86.90
60313;DHT22;46158;52.850;6.970;2022-11-15T11:45:15;15.50;87.10
60313;DHT22;46158;52.850;6.970;2022-11-15T11:47:51;15.50;86.90
60313;DHT22;46158;52.850;6.970;2022-11-15T11:50:26;15.50;87.00
60313;DHT22;46158;52.850;6.970;2022-11-15T11:53:13;15.50;87.10
60313;DHT22;46158;52.850;6.970;2022-11-15T11:55:47;15.50;87.00
60313;DHT22;46158;52.850;6.970;2022-11-15T11:58:35;15.50;87.10
60313;DHT22;46158;52.850;6.970;2022-11-15T12:01:20;15.50;87.10
60313;DHT22;46158;52.850;6.970;2022-11-15T12:03:53;15.50;87.10
60313;DHT22;46158;52.850;6.970;2022-11-15T12:06:35;15.50;87.10
60313;DHT22;46158;52.850;6.970;2022-11-15T12:17:34;15.60;87.10
60313;DHT22;46158;52.850;6.970;2022-11-15T12:20:17;15.60;87.10
60313;DHT22;46158;52.850;6.970;2022-11-15T12:30:27;15.70;86.90
60313;DHT22;46158;52.850;6.970;2022-11-15T12:32:57;15.70;86.90
60313;DHT22;46158;52.850;6.970;2022-11-15T12:35:29;15.70;86.80
60313;DHT22;46158;52.850;6.970;2022-11-15T12:37:56;15.70;86.80
60313;DHT22;46158;52.850;6.970;2022-11-15T12:40:25;15.70;86.80
60313;DHT22;46158;52.850;6.970;2022-11-15T12:45:43;15.70;86.70
60313;DHT22;46158;52.850;6.970;2022-11-15T12:53:30;15.70;86.60
60313;DHT22;46158;52.850;6.970;2022-11-15T13:11:58;15.80;86.40
60313;DHT22;46158;52.850;6.970;2022-11-15T13:17:33;15.80;86.30
60313;DHT22;46158;52.850;6.970;2022-11-15T13:22:27;15.80;86.40
60313;DHT22;46158;52.850;6.970;2022-11-15T13:28:02;15.80;86.30
60313;DHT22;46158;52.850;6.970;2022-11-15T13:30:30;15.80;86.30
60313;DHT22;46158;52.850;6.970;2022-11-15T13:33:05;15.80;86.20
60313;DHT22;46158;52.850;6.970;2022-11-15T13:35:33;15.80;86.20
60313;DHT22;46158;52.850;6.970;2022-11-15T13:38:03;15.80;86.20
60313;DHT22;46158;52.850;6.970;2022-11-15T13:40:35;15.80;86.10
60313;DHT22;46158;52.850;6.970;2022-11-15T13:43:36;15.80;86.00
60313;DHT22;46158;52.850;6.970;2022-11-15T13:48:45;15.80;85.90
60313;DHT22;46158;52.850;6.970;2022-11-15T13:51:48;15.80;85.90
60313;DHT22;46158;52.850;6.970;2022-11-15T13:56:49;15.80;85.80
60313;DHT22;46158;52.850;6.970;2022-11-15T13:59:25;15.90;85.90
60313;DHT22;46158;52.850;6.970;2022-11-15T14:01:53;15.90;85.80
60313;DHT22;46158;52.850;6.970;2022-11-15T14:04:21;15.90;85.80
60313;DHT22;46158;52.850;6.970;2022-11-15T14:06:51;15.90;85.70
60313;DHT22;46158;52.850;6.970;2022-11-15T14:09:38;15.90;85.60
60313;DHT22;46158;52.850;6.970;2022-11-15T14:12:32;15.90;85.50
60313;DHT22;46158;52.850;6.970;2022-11-15T14:15:01;15.90;85.60
60313;DHT22;46158;52.850;6.970;2022-11-15T14:19:57;15.90;85.60
60313;DHT22;46158;52.850;6.970;2022-11-15T14:25:07;15.90;85.50
60313;DHT22;46158;52.850;6.970;2022-11-15T14:27:39;15.90;85.50
60313;DHT22;46158;52.850;6.970;2022-11-15T14:30:06;15.90;85.50
60313;DHT22;46158;52.850;6.970;2022-11-15T14:32:46;15.90;85.50
60313;DHT22;46158;52.850;6.970;2022-11-15T14:35:15;15.90;85.50
60313;DHT22;46158;52.850;6.970;2022-11-15T14:37:42;15.90;85.50
60313;DHT22;46158;52.850;6.970;2022-11-15T14:40:12;15.90;85.50
60313;DHT22;46158;52.850;6.970;2022-11-15T14:42:38;15.90;85.40
60313;DHT22;46158;52.850;6.970;2022-11-15T14:45:13;15.90;85.40
60313;DHT22;46158;52.850;6.970;2022-11-15T14:47:39;15.90;85.40
60313;DHT22;46158;52.850;6.970;2022-11-15T14:50:05;15.90;85.40
60313;DHT22;46158;52.850;6.970;2022-11-15T14:52:32;15.90;85.30
60313;DHT22;46158;52.850;6.970;2022-11-15T14:55:08;15.90;85.30
60313;DHT22;46158;52.850;6.970;2022-11-15T14:57:40;15.90;85.30
60313;DHT22;46158;52.850;6.970;2022-11-15T15:00:06;15.90;85.30
60313;DHT22;46158;52.850;6.970;2022-11-15T15:02:33;15.90;85.30
60313;DHT22;46158;52.850;6.970;2022-11-15T15:04:59;15.90;85.30
60313;DHT22;46158;52.850;6.970;2022-11-15T15:07:27;15.90;85.20
60313;DHT22;46158;52.850;6.970;2022-11-15T15:09:53;15.90;85.20
60313;DHT22;46158;52.850;6.970;2022-11-15T15:12:21;15.90;85.20
60313;DHT22;46158;52.850;6.970;2022-11-15T15:14:48;15.90;85.20
60313;DHT22;46158;52.850;6.970;2022-11-15T15:17:14;15.90;85.10
60313;DHT22;46158;52.850;6.970;2022-11-15T15:19:40;15.90;85.10
60313;DHT22;46158;52.850;6.970;2022-11-15T15:22:15;15.90;85.10
60313;DHT22;46158;52.850;6.970;2022-11-15T15:24:43;16.00;85.10
60313;DHT22;46158;52.850;6.970;2022-11-15T15:27:09;15.90;85.00
60313;DHT22;46158;52.850;6.970;2022-11-15T15:29:34;16.00;85.10
60313;DHT22;46158;52.850;6.970;2022-11-15T15:32:00;15.90;85.00
60313;DHT22;46158;52.850;6.970;2022-11-15T15:34:28;16.00;85.00
60313;DHT22;46158;52.850;6.970;2022-11-15T15:39:32;16.00;84.80
60313;DHT22;46158;52.850;6.970;2022-11-15T15:41:58;16.00;84.90
60313;DHT22;46158;52.850;6.970;2022-11-15T15:44:24;16.00;84.90
60313;DHT22;46158;52.850;6.970;2022-11-15T15:46:49;16.00;84.80
60313;DHT22;46158;52.850;6.970;2022-11-15T15:49:15;16.00;84.70
60313;DHT22;46158;52.850;6.970;2022-11-15T15:51:41;16.00;84.70
60313;DHT22;46158;52.850;6.970;2022-11-15T15:54:06;16.00;84.70
60313;DHT22;46158;52.850;6.970;2022-11-15T15:56:32;16.00;84.60
60313;DHT22;46158;52.850;6.970;2022-11-15T15:58:57;15.90;84.50
60313;DHT22;46158;52.850;6.970;2022-11-15T16:01:23;15.90;84.50
60313;DHT22;46158;52.850;6.970;2022-11-15T16:03:50;15.90;84.40
60313;DHT22;46158;52.850;6.970;2022-11-15T16:06:44;16.00;84.40
60313;DHT22;46158;52.850;6.970;2022-11-15T16:09:14;16.00;84.30
60313;DHT22;46158;52.850;6.970;2022-11-15T16:11:41;15.90;84.20
60313;DHT22;46158;52.850;6.970;2022-11-15T16:14:08;16.00;84.10
60313;DHT22;46158;52.850;6.970;2022-11-15T16:16:34;16.00;84.00
60313;DHT22;46158;52.850;6.970;2022-11-15T16:19:01;15.90;83.80
60313;DHT22;46158;52.850;6.970;2022-11-15T16:21:27;16.00;83.90
60313;DHT22;46158;52.850;6.970;2022-11-15T16:23:53;15.90;83.60
60313;DHT22;46158;52.850;6.970;2022-11-15T16:26:24;15.90;83.50
60313;DHT22;46158;52.850;6.970;2022-11-15T16:28:51;15.90;83.40
60313;DHT22;46158;52.850;6.970;2022-11-15T16:31:17;15.90;83.40
60313;DHT22;46158;52.850;6.970;2022-11-15T16:33:45;15.90;83.30
60313;DHT22;46158;52.850;6.970;2022-11-15T16:36:26;15.90;83.30
60313;DHT22;46158;52.850;6.970;2022-11-15T16:38:52;15.90;83.20
60313;DHT22;46158;52.850;6.970;2022-11-15T16:41:18;15.90;83.30
60313;DHT22;46158;52.850;6.970;2022-11-15T16:43:48;15.90;83.30
60313;DHT22;46158;52.850;6.970;2022-11-15T16:46:20;15.90;83.30
60313;DHT22;46158;52.850;6.970;2022-11-15T16:48:46;15.90;83.40
60313;DHT22;46158;52.850;6.970;2022-11-15T16:51:13;15.90;83.40
60313;DHT22;46158;52.850;6.970;2022-11-15T16:53:39;15.90;83.40
60313;DHT22;46158;52.850;6.970;2022-11-15T16:56:18;15.90;83.40
60313;DHT22;46158;52.850;6.970;2022-11-15T16:58:44;15.90;83.40
60313;DHT22;46158;52.850;6.970;2022-11-15T17:01:17;15.90;83.50
60313;DHT22;46158;52.850;6.970;2022-11-15T17:03:43;15.90;83.50
60313;DHT22;46158;52.850;6.970;2022-11-15T17:06:10;15.90;83.60
60313;DHT22;46158;52.850;6.970;2022-11-15T17:08:37;15.90;83.60
60313;DHT22;46158;52.850;6.970;2022-11-15T17:11:06;15.90;83.70
60313;DHT22;46158;52.850;6.970;2022-11-15T17:13:32;15.90;83.70
60313;DHT22;46158;52.850;6.970;2022-11-15T17:16:09;15.90;83.80
60313;DHT22;46158;52.850;6.970;2022-11-15T17:18:35;15.90;83.80
60313;DHT22;46158;52.850;6.970;2022-11-15T17:23:31;15.90;83.90
60313;DHT22;46158;52.850;6.970;2022-11-15T17:25:58;15.90;84.10
60313;DHT22;46158;52.850;6.970;2022-11-15T17:28:25;15.90;84.10
60313;DHT22;46158;52.850;6.970;2022-11-15T17:30:50;15.90;84.10
60313;DHT22;46158;52.850;6.970;2022-11-15T17:33:16;15.90;84.20
60313;DHT22;46158;52.850;6.970;2022-11-15T17:35:42;15.90;84.20
60313;DHT22;46158;52.850;6.970;2022-11-15T17:38:07;15.90;84.20
60313;DHT22;46158;52.850;6.970;2022-11-15T17:40:33;15.90;84.20
60313;DHT22;46158;52.850;6.970;2022-11-15T17:42:58;15.90;84.30
60313;DHT22;46158;52.850;6.970;2022-11-15T17:45:24;15.90;84.20
60313;DHT22;46158;52.850;6.970;2022-11-15T17:47:50;16.00;84.40